createdAt,value
2023-04-16T00:01:34.008Z,20.80
2023-04-16T00:04:00.896Z,16.80
2023-04-16T00:06:28.773Z,24.73
2023-04-16T00:08:55.530Z,18.97
2023-04-16T00:11:22.380Z,21.43
2023-04-16T00:13:49.232Z,25.50
2023-04-16T00:16:16.266Z,24.73
2023-04-16T00:18:43.526Z,21.67
2023-04-16T00:21:10.173Z,21.07
2023-04-16T00:23:36.871Z,24.60
2023-04-16T00:26:03.793Z,26.73
2023-04-16T00:28:30.499Z,24.73
2023-04-16T00:30:57.156Z,22.93
2023-04-16T00:33:24.016Z,25.20
2023-04-16T00:35:51.353Z,24.07
2023-04-16T00:38:18.175Z,18.77
2023-04-16T00:40:45.280Z,22.83
2023-04-16T00:43:11.856Z,19.87
2023-04-16T00:45:38.888Z,17.33
2023-04-16T00:48:06.143Z,20.20
2023-04-16T00:50:33.749Z,20.17
2023-04-16T00:53:02.898Z,18.10
2023-04-16T00:55:30.045Z,22.27
2023-04-16T00:57:56.621Z,24.57
2023-04-16T01:00:23.339Z,22.17
2023-04-16T01:02:50.170Z,22.27
2023-04-16T01:05:16.934Z,23.17
2023-04-16T01:07:44.580Z,25.27
2023-04-16T01:10:11.418Z,21.20
2023-04-16T01:12:38.050Z,24.40
2023-04-16T01:15:05.130Z,20.97
2023-04-16T01:17:31.715Z,24.50
2023-04-16T01:20:00.386Z,28.03
2023-04-16T01:22:28.708Z,24.20
2023-04-16T01:24:55.326Z,26.73
2023-04-16T01:27:21.956Z,24.93
2023-04-16T01:29:48.828Z,24.33
2023-04-16T01:32:15.650Z,29.57
2023-04-16T01:34:42.230Z,27.17
2023-04-16T01:37:08.871Z,22.90
2023-04-16T01:39:35.733Z,27.07
2023-04-16T01:42:02.560Z,32.03
2023-04-16T01:44:29.299Z,29.67
2023-04-16T01:46:58.509Z,31.63
2023-04-16T01:49:25.480Z,28.23
2023-04-16T01:51:53.082Z,27.23
2023-04-16T01:54:21.947Z,25.43
2023-04-16T01:56:48.601Z,31.57
2023-04-16T01:59:15.219Z,26.80
2023-04-16T02:01:42.993Z,32.70
2023-04-16T02:04:10.752Z,30.73
2023-04-16T02:06:37.466Z,37.17
2023-04-16T02:09:04.270Z,28.60
2023-04-16T02:11:31.083Z,28.53
2023-04-16T02:13:58.211Z,27.43
2023-04-16T02:16:26.484Z,31.63
2023-04-16T02:18:53.166Z,31.37
2023-04-16T02:21:20.449Z,30.77
2023-04-16T02:23:51.877Z,32.10
2023-04-16T02:26:18.707Z,32.07
2023-04-16T02:28:45.390Z,34.23
2023-04-16T02:31:12.024Z,36.97
2023-04-16T02:33:38.664Z,30.07
2023-04-16T02:36:05.650Z,30.87
2023-04-16T02:38:32.335Z,40.87
2023-04-16T02:40:59.590Z,33.57
2023-04-16T02:43:26.560Z,32.60
2023-04-16T02:45:53.535Z,34.07
2023-04-16T02:48:20.247Z,30.87
2023-04-16T02:50:46.939Z,31.93
2023-04-16T02:53:13.655Z,30.93
2023-04-16T02:55:40.269Z,32.87
2023-04-16T02:58:07.199Z,33.70
2023-04-16T03:00:33.819Z,31.73
2023-04-16T03:03:00.468Z,27.77
2023-04-16T03:05:27.082Z,31.23
2023-04-16T03:07:56.867Z,31.33
2023-04-16T03:10:24.279Z,28.63
2023-04-16T03:12:51.078Z,32.47
2023-04-16T03:15:17.856Z,31.10
2023-04-16T03:17:44.588Z,34.80
2023-04-16T03:20:11.602Z,36.73
2023-04-16T03:22:39.153Z,41.50
2023-04-16T03:25:06.735Z,32.13
2023-04-16T03:27:36.924Z,33.97
2023-04-16T03:30:04.882Z,36.17
2023-04-16T03:32:31.571Z,35.20
2023-04-16T03:34:58.237Z,39.63
2023-04-16T03:37:24.945Z,45.97
2023-04-16T03:39:51.724Z,42.47
2023-04-16T03:42:18.356Z,40.23
2023-04-16T03:44:47.936Z,34.80
2023-04-16T03:47:17.405Z,37.73
2023-04-16T03:49:44.057Z,37.20
2023-04-16T03:52:11.717Z,39.63
2023-04-16T03:54:38.336Z,32.73
2023-04-16T03:57:05.117Z,38.00
2023-04-16T03:59:31.732Z,42.17
2023-04-16T04:01:58.802Z,41.57
2023-04-16T04:04:25.627Z,42.50
2023-04-16T04:06:52.295Z,40.37
2023-04-16T04:09:18.992Z,40.73
2023-04-16T04:11:45.700Z,38.27
2023-04-16T04:14:12.326Z,40.70
2023-04-16T04:16:39.061Z,40.20
2023-04-16T04:19:05.815Z,43.80
2023-04-16T04:21:34.981Z,43.90
2023-04-16T04:24:04.462Z,50.93
2023-04-16T04:26:31.162Z,50.03
2023-04-16T04:28:57.784Z,43.30
2023-04-16T04:31:24.523Z,45.17
2023-04-16T04:33:51.210Z,48.53
2023-04-16T04:36:17.807Z,43.80
2023-04-16T04:38:44.390Z,47.07
2023-04-16T04:41:11.116Z,48.47
2023-04-16T04:43:37.745Z,47.37
2023-04-16T04:46:04.731Z,48.83
2023-04-16T04:48:31.445Z,44.77
2023-04-16T04:50:58.162Z,46.93
2023-04-16T04:53:24.741Z,43.07
2023-04-16T04:55:54.238Z,50.37
2023-04-16T04:58:24.036Z,50.80
2023-04-16T05:00:50.665Z,43.23
2023-04-16T05:03:20.942Z,41.03
2023-04-16T05:05:48.152Z,41.70
2023-04-16T05:08:14.768Z,41.83
2023-04-16T05:10:41.513Z,45.50
2023-04-16T05:13:08.113Z,44.77
2023-04-16T05:15:34.735Z,45.17
2023-04-16T05:18:01.782Z,41.20
2023-04-16T05:20:28.372Z,39.80
2023-04-16T05:22:55.568Z,40.37
2023-04-16T05:25:22.587Z,35.37
2023-04-16T05:27:49.348Z,36.33
2023-04-16T05:30:16.026Z,39.60
2023-04-16T05:32:42.676Z,38.37
2023-04-16T05:35:10.138Z,37.07
2023-04-16T05:37:36.871Z,39.50
2023-04-16T05:40:04.218Z,43.50
2023-04-16T05:42:31.204Z,45.77
2023-04-16T05:44:57.891Z,41.77
2023-04-16T05:47:25.818Z,40.93
2023-04-16T05:49:52.418Z,44.03
2023-04-16T05:52:19.099Z,46.30
2023-04-16T05:54:45.751Z,51.13
2023-04-16T05:57:13.955Z,54.73
2023-04-16T05:59:40.584Z,52.13
2023-04-16T06:02:07.242Z,47.80
2023-04-16T06:04:35.834Z,54.10
2023-04-16T06:07:02.508Z,44.93
2023-04-16T06:09:30.168Z,45.43
2023-04-16T06:11:56.869Z,37.27
2023-04-16T06:14:23.829Z,35.67
2023-04-16T06:16:50.444Z,38.47
2023-04-16T06:19:17.817Z,44.23
2023-04-16T06:21:44.844Z,37.17
2023-04-16T06:24:11.424Z,43.90
2023-04-16T06:26:40.622Z,38.63
2023-04-16T06:29:07.485Z,37.93
2023-04-16T06:31:37.503Z,36.33
2023-04-16T06:34:04.195Z,40.00
2023-04-16T06:36:31.374Z,33.67
2023-04-16T06:38:58.133Z,36.50
2023-04-16T06:41:26.829Z,30.37
2023-04-16T06:43:53.414Z,34.23
2023-04-16T06:46:22.379Z,30.97
2023-04-16T06:48:49.080Z,33.47
2023-04-16T06:51:15.779Z,29.80
2023-04-16T06:53:42.746Z,32.07
2023-04-16T06:56:09.502Z,29.30
2023-04-16T06:58:36.495Z,27.93
2023-04-16T07:01:03.185Z,32.30
2023-04-16T07:03:30.044Z,29.47
2023-04-16T07:05:56.957Z,30.20
2023-04-16T07:08:23.873Z,31.67
2023-04-16T07:10:54.018Z,30.43
2023-04-16T07:13:21.004Z,30.90
2023-04-16T07:15:48.165Z,31.53
2023-04-16T07:18:14.910Z,34.27
2023-04-16T07:20:41.650Z,35.03
2023-04-16T07:23:08.323Z,38.43
2023-04-16T07:25:35.138Z,37.30
2023-04-16T07:28:01.992Z,33.80
2023-04-16T07:30:34.175Z,36.60
2023-04-16T07:33:04.964Z,34.43
2023-04-16T07:35:32.089Z,30.43
2023-04-16T07:37:58.839Z,31.50
2023-04-16T07:40:25.606Z,32.00
2023-04-16T07:42:52.364Z,31.63
2023-04-16T07:45:19.539Z,33.90
2023-04-16T07:47:46.542Z,36.73
2023-04-16T07:50:13.464Z,38.47
2023-04-16T07:52:41.594Z,30.60
2023-04-16T07:55:09.197Z,24.83
2023-04-16T07:57:36.071Z,30.60
2023-04-16T08:00:05.103Z,33.10
2023-04-16T08:02:32.642Z,30.47
2023-04-16T08:04:59.742Z,33.77
2023-04-16T08:07:26.407Z,27.57
2023-04-16T08:09:53.605Z,29.10
2023-04-16T08:12:21.120Z,33.20
2023-04-16T08:14:50.357Z,27.20
2023-04-16T08:17:17.048Z,24.57
2023-04-16T08:19:45.223Z,29.83
2023-04-16T08:22:14.892Z,26.00
2023-04-16T08:24:41.548Z,24.00
2023-04-16T08:27:18.452Z,27.63
2023-04-16T08:29:46.111Z,27.23
2023-04-16T08:32:12.946Z,26.10
2023-04-16T08:34:39.651Z,24.83
2023-04-16T08:37:06.574Z,24.13
2023-04-16T08:39:33.188Z,27.43
2023-04-16T08:42:03.631Z,25.07
2023-04-16T08:44:36.036Z,24.10
2023-04-16T08:47:03.416Z,26.17
2023-04-16T08:49:33.423Z,24.50
2023-04-16T08:52:00.710Z,20.83
2023-04-16T08:54:36.388Z,24.50
2023-04-16T08:57:07.129Z,23.53
2023-04-16T08:59:34.977Z,23.13
2023-04-16T09:02:02.568Z,28.77
2023-04-16T09:04:29.641Z,27.47
2023-04-16T09:06:57.564Z,29.67
2023-04-16T09:09:26.626Z,28.60
2023-04-16T09:11:54.025Z,29.47
2023-04-16T09:14:20.830Z,27.20
2023-04-16T09:16:48.173Z,31.23
2023-04-16T09:19:15.853Z,24.97
2023-04-16T09:21:46.101Z,26.40
2023-04-16T09:24:13.293Z,29.30
2023-04-16T09:26:43.556Z,27.93
2023-04-16T09:29:10.533Z,26.60
2023-04-16T09:31:37.939Z,24.00
2023-04-16T09:34:07.026Z,21.30
2023-04-16T09:36:35.031Z,21.70
2023-04-16T09:39:02.782Z,28.80
2023-04-16T09:41:36.233Z,25.13
2023-04-16T09:44:04.799Z,25.67
2023-04-16T09:46:35.152Z,24.60
2023-04-16T09:49:16.102Z,24.13
2023-04-16T09:51:46.725Z,19.07
2023-04-16T09:54:13.754Z,19.67
2023-04-16T09:56:44.641Z,18.13
2023-04-16T09:59:24.568Z,19.47
2023-04-16T10:01:53.508Z,19.77
2023-04-16T10:04:52.888Z,19.07
2023-04-16T10:07:20.390Z,20.33
2023-04-16T10:09:50.776Z,21.03
2023-04-16T10:12:17.372Z,19.57
2023-04-16T10:14:44.143Z,18.43
2023-04-16T10:17:10.931Z,19.60
2023-04-16T10:19:38.049Z,21.33
2023-04-16T10:22:05.571Z,20.40
2023-04-16T10:24:34.121Z,26.37
2023-04-16T10:27:02.922Z,23.67
2023-04-16T10:29:31.604Z,24.27
2023-04-16T10:31:58.977Z,23.63
2023-04-16T10:34:29.192Z,24.10
2023-04-16T10:36:56.237Z,18.30
2023-04-16T10:39:24.539Z,19.10
2023-04-16T10:42:06.377Z,21.40
2023-04-16T10:44:33.585Z,26.43
2023-04-16T10:47:00.988Z,26.87
2023-04-16T10:49:27.650Z,23.93
2023-04-16T10:51:59.081Z,24.30
2023-04-16T10:54:30.770Z,26.50
2023-04-16T10:57:01.269Z,22.93
2023-04-16T10:59:37.488Z,17.80
2023-04-16T11:02:10.233Z,18.30
2023-04-16T11:04:38.775Z,18.03
2023-04-16T11:07:15.173Z,15.70
2023-04-16T11:10:02.619Z,16.07
2023-04-16T11:12:29.318Z,17.33
2023-04-16T11:15:09.673Z,15.10
2023-04-16T11:17:47.410Z,12.37
2023-04-16T11:20:22.616Z,12.83
2023-04-16T11:22:54.124Z,17.80
2023-04-16T11:25:30.004Z,13.30
2023-04-16T11:27:59.331Z,13.97
2023-04-16T11:30:36.525Z,14.63
2023-04-16T11:33:04.192Z,14.73
2023-04-16T11:35:31.268Z,14.50
2023-04-16T11:37:58.819Z,15.67
2023-04-16T11:40:26.247Z,15.43
2023-04-16T11:42:52.893Z,16.17
2023-04-16T11:45:19.885Z,13.60
2023-04-16T11:47:56.941Z,13.27
2023-04-16T11:50:29.158Z,13.43
2023-04-16T11:53:03.333Z,14.23
2023-04-16T11:55:30.001Z,14.27
2023-04-16T11:57:56.741Z,13.73
2023-04-16T12:00:24.767Z,15.60
2023-04-16T12:02:57.320Z,13.90
2023-04-16T12:05:35.230Z,16.30
2023-04-16T12:08:07.281Z,16.13
2023-04-16T12:10:36.174Z,13.63
2023-04-16T12:13:16.527Z,14.27
2023-04-16T12:15:47.203Z,14.33
2023-04-16T12:18:14.468Z,12.90
2023-04-16T12:20:42.102Z,14.77
2023-04-16T12:23:09.693Z,14.03
2023-04-16T12:25:36.461Z,15.30
2023-04-16T12:28:03.285Z,14.77
2023-04-16T12:30:32.364Z,13.87
2023-04-16T12:33:17.895Z,13.60
2023-04-16T12:35:46.192Z,14.80
2023-04-16T12:38:15.287Z,12.37
2023-04-16T12:40:42.053Z,14.67
2023-04-16T12:43:10.157Z,13.70
2023-04-16T12:45:37.306Z,15.07
2023-04-16T12:48:04.134Z,14.93
2023-04-16T12:50:30.795Z,15.70
2023-04-16T12:52:58.051Z,13.97
2023-04-16T12:55:25.700Z,14.23
2023-04-16T12:57:55.813Z,14.50
2023-04-16T13:00:22.862Z,17.43
2023-04-16T13:02:49.781Z,14.47
2023-04-16T13:05:19.327Z,16.43
2023-04-16T13:07:46.343Z,14.70
2023-04-16T13:10:14.042Z,14.23
2023-04-16T13:12:40.798Z,14.63
2023-04-16T13:35:26.736Z,15.17
2023-04-16T13:37:53.507Z,14.83
2023-04-16T13:40:22.333Z,14.53
2023-04-16T13:42:48.923Z,16.50
2023-04-16T13:45:15.566Z,14.60
2023-04-16T13:47:43.637Z,17.13
2023-04-16T13:50:11.047Z,17.00
2023-04-16T13:52:37.739Z,17.20
2023-04-16T13:55:04.981Z,17.10
2023-04-16T13:57:32.234Z,17.80
2023-04-16T13:59:58.865Z,14.87
2023-04-16T14:02:27.129Z,16.50
2023-04-16T14:04:54.279Z,15.07
2023-04-16T14:07:22.720Z,15.83
2023-04-16T14:09:49.313Z,17.00
2023-04-16T14:12:16.545Z,16.10
2023-04-16T14:14:43.442Z,15.50
2023-04-16T14:17:15.336Z,15.73
2023-04-16T14:19:42.208Z,15.97
2023-04-16T14:22:09.566Z,14.70
2023-04-16T14:24:36.789Z,18.10
2023-04-16T14:27:03.453Z,13.77
2023-04-16T14:29:31.095Z,13.30
2023-04-16T14:31:57.756Z,17.10
2023-04-16T14:34:24.418Z,15.27
2023-04-16T14:36:52.080Z,16.70
2023-04-16T14:39:18.752Z,15.97
2023-04-16T14:41:45.418Z,14.20
2023-04-16T14:44:12.041Z,15.00
2023-04-16T14:46:41.152Z,15.00
2023-04-16T14:49:10.070Z,11.63
2023-04-16T14:51:40.971Z,15.97
2023-04-16T14:54:07.720Z,13.37
2023-04-16T14:56:34.278Z,14.70
2023-04-16T14:59:00.976Z,12.93
2023-04-16T15:01:27.767Z,18.10
2023-04-16T15:03:57.502Z,14.67
2023-04-16T15:06:25.124Z,13.53
2023-04-16T15:08:52.113Z,16.20
2023-04-16T15:11:18.778Z,15.70
2023-04-16T15:13:45.437Z,12.67
2023-04-16T15:16:12.120Z,13.93
2023-04-16T15:18:39.378Z,12.37
2023-04-16T15:21:06.391Z,15.67
2023-04-16T15:23:33.365Z,13.60
2023-04-16T15:26:00.290Z,12.10
2023-04-16T15:28:27.255Z,14.47
2023-04-16T15:30:53.990Z,14.00
2023-04-16T15:35:53.688Z,14.67
2023-04-16T15:38:21.546Z,12.70
2023-04-16T15:40:48.376Z,14.37
2023-04-16T15:43:15.839Z,11.70
2023-04-16T15:45:42.537Z,13.47
2023-04-16T15:48:09.187Z,11.83
2023-04-16T15:50:35.962Z,12.63
2023-04-16T15:53:03.423Z,13.63
2023-04-16T15:55:30.156Z,15.13
2023-04-16T15:57:57.261Z,11.17
2023-04-16T16:00:24.097Z,12.57
2023-04-16T16:02:51.011Z,20.37
2023-04-16T16:05:17.722Z,23.87
2023-04-16T16:07:44.631Z,21.43
2023-04-16T16:10:13.126Z,25.13
2023-04-16T16:12:40.886Z,24.97
2023-04-16T16:15:08.335Z,22.13
2023-04-16T16:17:35.429Z,22.90
2023-04-16T16:20:02.495Z,21.17
2023-04-16T16:22:29.965Z,19.80
2023-04-16T16:24:57.816Z,19.30
2023-04-16T16:27:24.921Z,19.93
2023-04-16T16:29:51.851Z,23.50
2023-04-16T16:32:18.448Z,22.57
2023-04-16T16:34:45.099Z,21.07
2023-04-16T16:37:11.722Z,25.53
2023-04-16T16:39:38.972Z,22.93
2023-04-16T16:42:06.148Z,25.10
2023-04-16T16:44:35.197Z,25.63
2023-04-16T16:47:01.831Z,26.53
2023-04-16T16:49:28.483Z,26.80
2023-04-16T16:51:55.099Z,27.10
2023-04-16T16:54:21.676Z,28.60
2023-04-16T16:56:48.274Z,31.63
2023-04-16T16:59:14.911Z,29.90
2023-04-16T17:01:41.850Z,25.07
2023-04-16T17:04:08.492Z,26.83
2023-04-16T17:06:35.275Z,31.07
2023-04-16T17:09:02.095Z,29.37
2023-04-16T17:11:29.421Z,34.20
2023-04-16T17:13:56.105Z,27.80
2023-04-16T17:16:23.954Z,31.90
2023-04-16T17:18:50.890Z,29.60
2023-04-16T17:21:19.756Z,27.30
2023-04-16T17:23:46.358Z,28.87
2023-04-16T17:26:15.487Z,31.80
2023-04-16T17:28:42.143Z,34.07
2023-04-16T17:31:08.816Z,32.33
2023-04-16T17:33:35.652Z,27.83
2023-04-16T17:36:02.293Z,28.07
2023-04-16T17:38:28.876Z,28.27
2023-04-16T17:40:57.160Z,30.23
2023-04-16T17:43:24.330Z,32.50
2023-04-16T17:45:50.978Z,32.53
2023-04-16T17:48:17.608Z,31.20
2023-04-16T17:50:44.243Z,26.50
2023-04-16T17:53:11.099Z,33.30
2023-04-16T17:55:38.051Z,31.67
2023-04-16T17:58:04.871Z,34.27
2023-04-16T18:00:31.490Z,29.00
2023-04-16T18:02:59.834Z,29.13
2023-04-16T18:05:26.650Z,30.23
2023-04-16T18:07:53.648Z,32.60
2023-04-16T18:10:20.611Z,30.23
2023-04-16T18:12:47.213Z,29.43
2023-04-16T18:15:13.779Z,25.67
2023-04-16T18:17:40.570Z,27.87
2023-04-16T18:20:09.126Z,27.87
2023-04-16T18:22:35.664Z,27.63
2023-04-16T18:25:02.335Z,30.43
2023-04-16T18:27:28.964Z,25.53
2023-04-16T18:29:55.665Z,29.73
2023-04-16T18:32:22.327Z,22.00
2023-04-16T18:34:48.969Z,25.07
2023-04-16T18:37:15.534Z,24.40
2023-04-16T18:39:42.142Z,23.33
2023-04-16T18:42:08.739Z,22.70
2023-04-16T18:44:35.560Z,25.30
2023-04-16T18:47:02.300Z,24.80
2023-04-16T18:49:29.059Z,22.77
2023-04-16T18:51:56.210Z,24.87
2023-04-16T18:54:23.090Z,26.10
2023-04-16T18:56:49.745Z,24.20
2023-04-16T18:59:16.324Z,22.50
2023-04-16T19:01:43.318Z,22.23
2023-04-16T19:04:10.031Z,25.30
2023-04-16T19:06:36.690Z,24.90
2023-04-16T19:09:03.403Z,20.63
2023-04-16T19:11:29.971Z,20.10
2023-04-16T19:13:57.696Z,25.93
2023-04-16T19:16:24.336Z,22.97
2023-04-16T19:18:50.963Z,23.20
2023-04-16T19:21:17.565Z,22.43
2023-04-16T19:23:44.211Z,27.07
2023-04-16T19:26:11.041Z,24.63
2023-04-16T19:28:38.897Z,27.67
2023-04-16T19:31:06.555Z,25.67
2023-04-16T19:33:33.386Z,22.47
2023-04-16T19:36:00.520Z,22.23
2023-04-16T19:38:27.372Z,26.83
2023-04-16T19:40:54.266Z,27.67
2023-04-16T19:43:21.384Z,20.23
2023-04-16T19:45:53.592Z,26.70
2023-04-16T19:48:20.871Z,26.23
2023-04-16T19:50:47.817Z,23.30
2023-04-16T19:53:14.721Z,23.30
2023-04-16T19:55:41.893Z,26.53
2023-04-16T19:58:09.242Z,25.17
2023-04-16T20:00:41.006Z,24.33
2023-04-16T20:03:07.752Z,25.90
2023-04-16T20:05:34.524Z,27.93
2023-04-16T20:08:01.207Z,26.13
2023-04-16T20:10:27.990Z,22.17
2023-04-16T20:12:54.593Z,25.73
2023-04-16T20:15:21.188Z,25.67
2023-04-16T20:17:47.827Z,24.77
2023-04-16T20:20:23.814Z,29.13
2023-04-16T20:22:52.930Z,23.97
2023-04-16T20:25:19.941Z,23.57
2023-04-16T20:27:46.639Z,22.03
2023-04-16T20:30:14.167Z,25.13
2023-04-16T20:32:40.865Z,26.20
2023-04-16T20:35:11.049Z,29.87
2023-04-16T20:37:43.143Z,30.03
2023-04-16T20:40:11.038Z,22.00
2023-04-16T20:42:37.738Z,28.57
2023-04-16T20:45:05.155Z,24.10
2023-04-16T20:47:31.864Z,28.03
2023-04-16T20:50:01.966Z,29.30
2023-04-16T20:52:37.481Z,27.50
2023-04-16T20:55:04.333Z,27.63
2023-04-16T20:57:32.225Z,26.03
2023-04-16T20:59:58.889Z,25.03
2023-04-16T21:02:25.847Z,28.90
2023-04-16T21:04:52.713Z,32.67
2023-04-16T21:07:19.414Z,37.70
2023-04-16T21:09:46.086Z,30.80
2023-04-16T21:12:12.655Z,28.57
2023-04-16T21:14:39.440Z,34.23
2023-04-16T21:17:06.020Z,32.97
2023-04-16T21:19:32.652Z,28.27
2023-04-16T21:21:59.303Z,29.40
2023-04-16T21:25:07.625Z,31.40
2023-04-16T21:28:08.436Z,31.17
2023-04-16T21:30:44.245Z,31.63
2023-04-16T21:33:12.956Z,32.60
2023-04-16T21:35:39.552Z,32.03
2023-04-16T21:38:06.201Z,33.30
2023-04-16T21:40:32.860Z,32.23
2023-04-16T21:42:59.445Z,29.87
2023-04-16T21:45:26.071Z,36.60
2023-04-16T21:47:52.714Z,34.63
2023-04-16T21:50:19.517Z,35.87
2023-04-16T21:52:46.896Z,38.30
2023-04-16T21:55:14.803Z,39.00
2023-04-16T21:57:41.444Z,35.13
2023-04-16T22:00:14.927Z,45.40
2023-04-16T22:02:43.128Z,41.00
2023-04-16T22:05:11.448Z,37.97
2023-04-16T22:07:38.649Z,37.80
2023-04-16T22:10:06.949Z,41.37
2023-04-16T22:12:33.649Z,36.40
2023-04-16T22:15:03.096Z,41.87
2023-04-16T22:17:30.433Z,40.93
2023-04-16T22:20:00.778Z,45.30
2023-04-16T22:22:27.442Z,37.97
2023-04-16T22:24:54.124Z,42.70
2023-04-16T22:27:20.810Z,46.97
2023-04-16T22:29:47.599Z,41.70
2023-04-16T22:32:14.324Z,46.80
2023-04-16T22:34:40.999Z,43.33
2023-04-16T22:37:08.311Z,42.33
2023-04-16T22:39:35.622Z,43.83
2023-04-16T22:42:02.724Z,41.73
2023-04-16T22:44:29.405Z,46.63
2023-04-16T22:46:56.188Z,39.00
2023-04-16T22:49:22.964Z,39.53
2023-04-16T22:51:49.805Z,39.07
2023-04-16T22:54:18.807Z,36.73
2023-04-16T22:56:47.021Z,43.40
2023-04-16T22:59:13.849Z,41.57
2023-04-16T23:01:42.304Z,41.23
2023-04-16T23:04:09.073Z,40.57
2023-04-16T23:06:35.742Z,45.13
2023-04-16T23:09:02.744Z,42.43
2023-04-16T23:11:29.657Z,42.63
2023-04-16T23:13:56.347Z,38.57
2023-04-16T23:16:23.027Z,45.67
2023-04-16T23:18:50.580Z,35.70
2023-04-16T23:21:17.191Z,39.60
2023-04-16T23:23:43.899Z,37.07
2023-04-16T23:26:10.776Z,41.37
2023-04-16T23:28:37.828Z,34.40
2023-04-16T23:31:07.098Z,32.07
2023-04-16T23:33:34.137Z,34.40
2023-04-16T23:36:01.031Z,37.17
2023-04-16T23:38:27.703Z,33.90
2023-04-16T23:40:54.331Z,36.10
2023-04-16T23:43:21.521Z,32.17
2023-04-16T23:45:48.320Z,37.50
2023-04-16T23:48:14.991Z,31.40
2023-04-16T23:50:41.883Z,33.10
2023-04-16T23:53:08.531Z,31.33
2023-04-16T23:55:35.675Z,36.10
2023-04-16T23:58:02.315Z,32.70
